Time;durP1;ratioP1;P1;durP2;ratioP2;P2;SDS_P1;SDS_P2;PMS_P1;PMS_P2;Temp;Humidity;BMP_temperature;BMP_pressure;BME280_temperature;BME280_humidity;BME280_pressure;Samples;Min_cycle;Max_cycle;Signal;HPM_P1;HPM_P2
2023/04/18 00:01:05;;;;;;;1.30;0.90;;;;;;;;;;5075026;28;20103;-84
2023/04/18 00:03:30;;;;;;;1.60;1.08;;;;;;;;;;5074402;28;20036;-84
2023/04/18 00:05:56;;;;;;;0.45;0.45;;;;;;;;;;5073335;28;20085;-84
2023/04/18 00:08:22;;;;;;;1.33;0.90;;;;;;;;;;5074323;28;20111;-84
2023/04/18 00:10:47;;;;;;;1.50;1.10;;;;;;;;;;5074821;28;20424;-83
2023/04/18 00:13:13;;;;;;;3.20;1.70;;;;;;;;;;5073853;28;20017;-84
2023/04/18 00:15:40;;;;;;;2.85;1.38;;;;;;;;;;5075775;28;20074;-85
2023/04/18 00:18:07;;;;;;;1.95;1.13;;;;;;;;;;5074234;28;20043;-84
2023/04/18 00:20:32;;;;;;;4.20;2.30;;;;;;;;;;5073130;28;20032;-84
2023/04/18 00:22:59;;;;;;;2.47;1.58;;;;;;;;;;5073358;28;20368;-84
2023/04/18 00:25:25;;;;;;;5.82;2.33;;;;;;;;;;5073371;28;20020;-84
2023/04/18 00:27:50;;;;;;;3.88;2.03;;;;;;;;;;5074216;28;20446;-83
2023/04/18 00:30:16;;;;;;;4.10;2.47;;;;;;;;;;5072226;28;20027;-84
2023/04/18 00:32:41;;;;;;;4.18;2.22;;;;;;;;;;5073516;28;20028;-84
2023/04/18 00:35:07;;;;;;;4.05;2.33;;;;;;;;;;5074992;28;20027;-85
2023/04/18 00:37:32;;;;;;;7.75;4.53;;;;;;;;;;5072245;28;20108;-84
2023/04/18 00:39:58;;;;;;;12.15;6.25;;;;;;;;;;5073765;28;20025;-85
2023/04/18 00:42:24;;;;;;;5.80;2.70;;;;;;;;;;5074398;28;20051;-84
2023/04/18 00:44:50;;;;;;;1.52;1.25;;;;;;;;;;5073224;28;20545;-84
2023/04/18 00:47:16;;;;;;;3.38;1.80;;;;;;;;;;5071938;28;20029;-85
2023/04/18 00:49:43;;;;;;;1.58;1.10;;;;;;;;;;5072720;28;20030;-85
2023/04/18 00:52:10;;;;;;;1.50;1.10;;;;;;;;;;5072395;28;20029;-85
2023/04/18 00:54:36;;;;;;;0.60;0.52;;;;;;;;;;5073646;28;20349;-85
2023/04/18 00:57:01;;;;;;;1.30;1.20;;;;;;;;;;5073371;28;20034;-83
2023/04/18 00:59:27;;;;;;;1.10;0.63;;;;;;;;;;5072142;28;20032;-85
2023/04/18 01:01:52;;;;;;;1.33;0.90;;;;;;;;;;5072331;28;20023;-85
2023/04/18 01:04:18;;;;;;;1.75;1.10;;;;;;;;;;5072615;28;20025;-84
2023/04/18 01:06:44;;;;;;;0.90;0.80;;;;;;;;;;5074063;28;20036;-87
2023/04/18 01:09:10;;;;;;;1.33;0.80;;;;;;;;;;5071550;28;20020;-87
2023/04/18 01:11:36;;;;;;;2.45;1.27;;;;;;;;;;5072575;28;20023;-86
2023/04/18 01:14:03;;;;;;;1.92;0.93;;;;;;;;;;5073429;28;20020;-86
2023/04/18 01:16:33;;;;;;;0.88;0.80;;;;;;;;;;5071762;28;20036;-85
2023/04/18 01:19:02;;;;;;;2.42;1.42;;;;;;;;;;5071063;28;20037;-87
2023/04/18 01:21:34;;;;;;;3.75;1.23;;;;;;;;;;5071053;28;20460;-87
2023/04/18 01:24:11;;;;;;;0.45;0.45;;;;;;;;;;5071174;28;20499;-86
2023/04/18 01:26:37;;;;;;;1.05;0.90;;;;;;;;;;5074410;28;20024;-84
2023/04/18 01:29:03;;;;;;;1.20;1.10;;;;;;;;;;5071775;28;20028;-84
2023/04/18 01:31:28;;;;;;;1.02;0.75;;;;;;;;;;5072279;28;20042;-84
2023/04/18 01:33:54;;;;;;;1.48;1.33;;;;;;;;;;5070841;28;20035;-84
2023/04/18 01:36:19;;;;;;;2.45;1.27;;;;;;;;;;5070844;28;20086;-84
2023/04/18 01:38:44;;;;;;;1.55;1.08;;;;;;;;;;5072732;28;20035;-83
2023/04/18 01:41:10;;;;;;;0.98;0.82;;;;;;;;;;5071087;28;20032;-83
2023/04/18 01:43:35;;;;;;;2.85;1.17;;;;;;;;;;5072705;28;20024;-83
2023/04/18 01:46:01;;;;;;;0.47;0.40;;;;;;;;;;5071343;28;20037;-83
2023/04/18 01:48:26;;;;;;;1.13;1.00;;;;;;;;;;5071056;28;20115;-84
2023/04/18 01:50:52;;;;;;;1.80;1.15;;;;;;;;;;5072652;28;20357;-84
2023/04/18 01:53:17;;;;;;;1.02;0.82;;;;;;;;;;5071965;28;20024;-85
2023/04/18 01:55:42;;;;;;;0.93;0.60;;;;;;;;;;5072273;28;20016;-84
2023/04/18 01:58:08;;;;;;;1.02;0.90;;;;;;;;;;5068276;28;20091;-83
2023/04/18 02:00:34;;;;;;;0.95;0.73;;;;;;;;;;5071601;28;20032;-84
2023/04/18 02:02:59;;;;;;;1.13;0.60;;;;;;;;;;5070962;28;20024;-83
2023/04/18 02:05:27;;;;;;;0.47;0.45;;;;;;;;;;5071623;28;20036;-86
2023/04/18 02:07:53;;;;;;;1.20;0.85;;;;;;;;;;5069933;28;20033;-85
2023/04/18 02:10:18;;;;;;;0.30;0.30;;;;;;;;;;5072260;28;20376;-86
2023/04/18 02:12:44;;;;;;;0.75;0.68;;;;;;;;;;5070756;28;20064;-86
2023/04/18 02:15:10;;;;;;;6.13;2.13;;;;;;;;;;5071830;28;20052;-85
2023/04/18 02:17:36;;;;;;;3.03;2.22;;;;;;;;;;5072316;28;20028;-84
2023/04/18 02:20:02;;;;;;;5.82;2.80;;;;;;;;;;5071076;28;20107;-85
2023/04/18 02:22:27;;;;;;;7.80;2.03;;;;;;;;;;5072036;28;20055;-84
2023/04/18 02:24:53;;;;;;;1.63;1.30;;;;;;;;;;5069363;28;20086;-84
2023/04/18 02:27:18;;;;;;;2.45;1.58;;;;;;;;;;5069559;28;20454;-84
2023/04/18 02:29:44;;;;;;;6.22;2.28;;;;;;;;;;5070138;28;20036;-84
2023/04/18 02:32:10;;;;;;;5.53;2.70;;;;;;;;;;5070762;28;20054;-84
2023/04/18 02:34:38;;;;;;;1.65;1.17;;;;;;;;;;5069748;28;20488;-84
2023/04/18 02:37:10;;;;;;;3.17;1.58;;;;;;;;;;5070531;28;20430;-83
2023/04/18 02:39:41;;;;;;;5.28;1.13;;;;;;;;;;5067191;28;20031;-84
2023/04/18 02:42:06;;;;;;;0.75;0.70;;;;;;;;;;5070142;28;20498;-83
2023/04/18 02:44:32;;;;;;;1.05;0.95;;;;;;;;;;5069612;28;20048;-84
2023/04/18 02:46:57;;;;;;;2.33;1.05;;;;;;;;;;5071374;28;20031;-85
2023/04/18 02:49:22;;;;;;;1.95;1.13;;;;;;;;;;5070497;28;20052;-86
2023/04/18 02:51:59;;;;;;;1.13;0.57;;;;;;;;;;5071116;28;20053;-85
2023/04/18 02:54:24;;;;;;;1.38;1.15;;;;;;;;;;5070077;28;20380;-85
2023/04/18 02:56:56;;;;;;;1.40;0.93;;;;;;;;;;5071744;28;20031;-84
2023/04/18 02:59:21;;;;;;;1.52;1.05;;;;;;;;;;5071650;28;20095;-83
2023/04/18 03:01:46;;;;;;;1.17;1.02;;;;;;;;;;5072228;28;20071;-84
2023/04/18 03:04:12;;;;;;;1.38;1.10;;;;;;;;;;5071413;28;20151;-83
2023/04/18 03:06:37;;;;;;;2.10;1.45;;;;;;;;;;5071932;28;20028;-85
2023/04/18 03:09:03;;;;;;;3.35;1.25;;;;;;;;;;5071176;28;20012;-84
2023/04/18 03:11:29;;;;;;;1.20;1.00;;;;;;;;;;5071678;28;20029;-85
2023/04/18 03:13:58;;;;;;;2.17;1.20;;;;;;;;;;5069396;28;20031;-86
2023/04/18 03:16:23;;;;;;;2.63;1.55;;;;;;;;;;5070976;28;20021;-86
2023/04/18 03:18:52;;;;;;;2.75;1.73;;;;;;;;;;5072472;28;20420;-85
2023/04/18 03:21:17;;;;;;;2.42;1.63;;;;;;;;;;5072291;28;20063;-86
2023/04/18 03:23:43;;;;;;;1.83;1.45;;;;;;;;;;5071168;28;20059;-86
2023/04/18 03:26:12;;;;;;;2.58;1.70;;;;;;;;;;5071293;28;20880;-85
2023/04/18 03:28:39;;;;;;;5.65;1.25;;;;;;;;;;5072890;28;20029;-85
2023/04/18 03:31:04;;;;;;;3.45;1.88;;;;;;;;;;5072766;28;20365;-85
2023/04/18 03:33:30;;;;;;;3.75;2.22;;;;;;;;;;5073584;28;20047;-85
2023/04/18 03:35:59;;;;;;;2.67;1.73;;;;;;;;;;5070757;28;20024;-84
2023/04/18 03:38:28;;;;;;;2.53;2.13;;;;;;;;;;5073174;28;20016;-86
2023/04/18 03:40:56;;;;;;;3.58;2.13;;;;;;;;;;5070678;28;20115;-87
2023/04/18 03:43:22;;;;;;;2.88;1.67;;;;;;;;;;5077132;28;20353;-86
2023/04/18 03:45:48;;;;;;;3.72;2.42;;;;;;;;;;5078305;28;20098;-85
2023/04/18 03:48:16;;;;;;;5.38;2.63;;;;;;;;;;5075584;28;20384;-87
2023/04/18 03:50:47;;;;;;;4.07;2.80;;;;;;;;;;5076468;28;20074;-88
2023/04/18 03:53:13;;;;;;;3.88;2.50;;;;;;;;;;5074820;28;20032;-84
2023/04/18 03:55:38;;;;;;;3.25;2.72;;;;;;;;;;5075466;28;20115;-85
2023/04/18 03:58:04;;;;;;;3.65;2.28;;;;;;;;;;5077189;28;20028;-85
2023/04/18 04:00:29;;;;;;;3.70;2.00;;;;;;;;;;5075484;28;20047;-86
2023/04/18 04:02:55;;;;;;;3.47;1.92;;;;;;;;;;5076846;28;20017;-85
2023/04/18 04:05:23;;;;;;;3.20;2.08;;;;;;;;;;5076929;28;20108;-85
2023/04/18 04:07:51;;;;;;;4.57;2.60;;;;;;;;;;5075360;28;20031;-85
2023/04/18 04:10:17;;;;;;;5.10;2.65;;;;;;;;;;5074994;28;20040;-85
2023/04/18 04:12:42;;;;;;;4.22;2.65;;;;;;;;;;5075969;28;20040;-87
2023/04/18 04:15:34;;;;;;;2.00;1.40;;;;;;;;;;5077237;28;20020;-86
2023/04/18 04:18:05;;;;;;;3.05;1.95;;;;;;;;;;5074324;28;20037;-86
2023/04/18 04:20:31;;;;;;;5.07;1.80;;;;;;;;;;5075982;28;20032;-87
2023/04/18 04:23:05;;;;;;;4.28;2.28;;;;;;;;;;5075096;28;20152;-87
2023/04/18 04:25:32;;;;;;;2.75;1.38;;;;;;;;;;5075323;28;20061;-86
2023/04/18 04:28:00;;;;;;;3.10;1.52;;;;;;;;;;5077107;28;20433;-87
2023/04/18 04:30:25;;;;;;;5.60;3.50;;;;;;;;;;5075067;28;20553;-87
2023/04/18 04:32:52;;;;;;;2.47;2.22;;;;;;;;;;5075169;28;20016;-86
2023/04/18 04:35:17;;;;;;;5.90;2.40;;;;;;;;;;5074588;28;20052;-85
2023/04/18 04:37:43;;;;;;;5.10;2.55;;;;;;;;;;5075594;28;20044;-85
2023/04/18 04:40:11;;;;;;;11.20;2.58;;;;;;;;;;5074872;28;20016;-84
2023/04/18 04:42:39;;;;;;;3.28;1.88;;;;;;;;;;5074662;28;20038;-84
2023/04/18 04:45:09;;;;;;;4.80;3.25;;;;;;;;;;5073212;28;20159;-83
2023/04/18 04:47:35;;;;;;;3.38;2.33;;;;;;;;;;5073450;28;20028;-85
2023/04/18 04:50:01;;;;;;;5.32;2.78;;;;;;;;;;5073661;28;20032;-84
2023/04/18 04:52:26;;;;;;;5.57;3.28;;;;;;;;;;5071989;28;20115;-81
2023/04/18 04:54:52;;;;;;;6.70;3.72;;;;;;;;;;5072137;28;20111;-82
2023/04/18 04:57:19;;;;;;;6.43;2.75;;;;;;;;;;5073566;28;20187;-82
2023/04/18 04:59:45;;;;;;;4.63;3.40;;;;;;;;;;5072483;28;20039;-82
2023/04/18 05:02:10;;;;;;;3.97;2.42;;;;;;;;;;5071784;28;20036;-82
2023/04/18 05:04:39;;;;;;;5.15;3.42;;;;;;;;;;5072268;28;20120;-82
2023/04/18 05:07:04;;;;;;;4.03;2.95;;;;;;;;;;5069937;28;20017;-80
2023/04/18 05:09:30;;;;;;;5.72;2.85;;;;;;;;;;5071300;28;20119;-81
2023/04/18 05:11:58;;;;;;;10.73;3.70;;;;;;;;;;5072722;28;20036;-81
2023/04/18 05:14:24;;;;;;;5.13;3.70;;;;;;;;;;5073194;28;20033;-81
2023/04/18 05:16:57;;;;;;;6.68;3.80;;;;;;;;;;5070944;28;20459;-82
2023/04/18 05:19:22;;;;;;;5.28;2.80;;;;;;;;;;5071406;28;20044;-81
2023/04/18 05:21:47;;;;;;;6.95;4.25;;;;;;;;;;5070467;28;20052;-82
2023/04/18 05:24:13;;;;;;;5.43;3.15;;;;;;;;;;5071943;28;20032;-82
2023/04/18 05:26:39;;;;;;;5.88;3.95;;;;;;;;;;5072636;28;20021;-81
2023/04/18 05:29:04;;;;;;;10.20;3.60;;;;;;;;;;5071212;28;20383;-81
2023/04/18 05:31:30;;;;;;;5.93;3.13;;;;;;;;;;5070701;28;20038;-81
2023/04/18 05:33:58;;;;;;;6.90;3.33;;;;;;;;;;5071477;28;20165;-80
2023/04/18 05:36:26;;;;;;;6.45;3.35;;;;;;;;;;5070287;28;20073;-83
2023/04/18 05:38:52;;;;;;;5.50;3.28;;;;;;;;;;5071533;28;20059;-80
2023/04/18 05:41:20;;;;;;;7.10;3.75;;;;;;;;;;5070801;28;20134;-80
2023/04/18 05:43:48;;;;;;;4.57;3.60;;;;;;;;;;5070461;28;20029;-81
2023/04/18 05:46:14;;;;;;;5.47;3.00;;;;;;;;;;5070974;28;20048;-86
2023/04/18 05:48:42;;;;;;;6.97;3.20;;;;;;;;;;5073470;28;20499;-81
2023/04/18 05:51:07;;;;;;;6.78;3.75;;;;;;;;;;5071406;28;20032;-83
2023/04/18 05:53:33;;;;;;;5.95;3.65;;;;;;;;;;5072234;28;20040;-82
2023/04/18 05:56:04;;;;;;;6.47;3.40;;;;;;;;;;5069080;28;20024;-83
2023/04/18 05:58:32;;;;;;;7.10;3.78;;;;;;;;;;5067575;28;20082;-79
2023/04/18 06:00:57;;;;;;;8.38;3.08;;;;;;;;;;5068537;28;20494;-79
2023/04/18 06:03:23;;;;;;;6.47;3.92;;;;;;;;;;5071118;28;20024;-80
2023/04/18 06:05:49;;;;;;;5.15;2.88;;;;;;;;;;5067485;28;20710;-79
2023/04/18 06:08:15;;;;;;;4.63;2.92;;;;;;;;;;5068893;28;20032;-79
2023/04/18 06:10:40;;;;;;;7.95;3.65;;;;;;;;;;5064258;28;20041;-80
2023/04/18 06:13:08;;;;;;;6.70;3.75;;;;;;;;;;5070474;28;20020;-79
2023/04/18 06:15:34;;;;;;;5.20;3.30;;;;;;;;;;5068385;28;20024;-81
2023/04/18 06:18:12;;;;;;;8.60;3.53;;;;;;;;;;5070325;28;20103;-80
2023/04/18 06:20:38;;;;;;;4.57;2.90;;;;;;;;;;5067719;28;20033;-79
2023/04/18 06:23:04;;;;;;;6.30;3.33;;;;;;;;;;5069862;28;20086;-80
2023/04/18 06:25:29;;;;;;;4.63;2.75;;;;;;;;;;5066972;28;20028;-81
2023/04/18 06:27:57;;;;;;;6.60;2.90;;;;;;;;;;5069859;28;20028;-80
2023/04/18 06:30:22;;;;;;;4.47;2.45;;;;;;;;;;5064993;28;20120;-80
2023/04/18 06:32:48;;;;;;;4.18;2.30;;;;;;;;;;5068093;28;20496;-80
2023/04/18 06:35:14;;;;;;;3.33;2.10;;;;;;;;;;5069282;28;20020;-80
2023/04/18 06:37:43;;;;;;;7.28;3.25;;;;;;;;;;5070797;28;20024;-80
2023/04/18 06:40:10;;;;;;;4.28;2.83;;;;;;;;;;5070557;28;20040;-80
2023/04/18 06:42:35;;;;;;;3.97;2.28;;;;;;;;;;5070147;28;20028;-80
2023/04/18 06:45:09;;;;;;;3.92;2.42;;;;;;;;;;5072533;28;20397;-82
2023/04/18 06:47:37;;;;;;;4.72;2.53;;;;;;;;;;5070141;28;20468;-81
2023/04/18 06:50:04;;;;;;;6.40;3.25;;;;;;;;;;5072038;28;20024;-81
2023/04/18 06:52:32;;;;;;;9.98;2.92;;;;;;;;;;5071562;28;20064;-82
2023/04/18 06:55:00;;;;;;;3.33;2.10;;;;;;;;;;5070713;28;20503;-81
2023/04/18 06:57:50;;;;;;;4.40;2.13;;;;;;;;;;5071630;28;20029;-82
2023/04/18 07:00:24;;;;;;;3.60;2.00;;;;;;;;;;5068489;28;20036;-82
2023/04/18 07:02:49;;;;;;;6.18;2.55;;;;;;;;;;5065144;28;20029;-81
2023/04/18 07:05:18;;;;;;;5.05;2.45;;;;;;;;;;5071032;28;20025;-81
2023/04/18 07:07:46;;;;;;;3.92;2.55;;;;;;;;;;5068081;28;20091;-80
2023/04/18 07:10:12;;;;;;;4.13;2.03;;;;;;;;;;5069111;28;20028;-81
2023/04/18 07:12:37;;;;;;;4.97;2.28;;;;;;;;;;5069789;28;20035;-80
2023/04/18 07:15:03;;;;;;;4.32;2.53;;;;;;;;;;5068438;28;20024;-80
2023/04/18 07:17:29;;;;;;;4.45;2.47;;;;;;;;;;5072365;28;20100;-80
2023/04/18 07:19:54;;;;;;;12.85;2.70;;;;;;;;;;5073239;28;20087;-82
2023/04/18 07:22:20;;;;;;;5.93;3.15;;;;;;;;;;5076355;28;20024;-82
2023/04/18 07:24:45;;;;;;;7.10;2.78;;;;;;;;;;5076393;28;20025;-81
2023/04/18 07:27:11;;;;;;;4.22;2.38;;;;;;;;;;5076081;28;20035;-83
2023/04/18 07:29:36;;;;;;;4.88;2.50;;;;;;;;;;5073204;28;20111;-83
2023/04/18 07:32:02;;;;;;;3.50;2.13;;;;;;;;;;5075495;28;20441;-81
2023/04/18 07:34:28;;;;;;;3.92;2.30;;;;;;;;;;5075022;28;20090;-80
2023/04/18 07:36:55;;;;;;;3.22;2.08;;;;;;;;;;5073187;28;20028;-83
2023/04/18 07:39:21;;;;;;;3.80;1.95;;;;;;;;;;5072866;28;20021;-81
2023/04/18 07:41:46;;;;;;;4.57;2.22;;;;;;;;;;5073438;28;20043;-79
2023/04/18 07:44:12;;;;;;;2.47;1.65;;;;;;;;;;5074341;28;20542;-82
2023/04/18 07:46:37;;;;;;;3.28;2.17;;;;;;;;;;5070903;28;20041;-81
2023/04/18 07:49:03;;;;;;;3.85;2.45;;;;;;;;;;5073847;28;20020;-81
2023/04/18 07:51:30;;;;;;;2.90;1.88;;;;;;;;;;5071995;28;20035;-79
2023/04/18 07:53:59;;;;;;;3.55;2.13;;;;;;;;;;5072358;28;20066;-78
2023/04/18 07:56:25;;;;;;;4.50;2.13;;;;;;;;;;5070045;28;20043;-79
2023/04/18 07:58:51;;;;;;;3.05;1.90;;;;;;;;;;5071948;28;20114;-80
2023/04/18 08:01:19;;;;;;;4.13;2.33;;;;;;;;;;5073440;28;20064;-80
2023/04/18 08:03:47;;;;;;;1.85;1.45;;;;;;;;;;5072960;28;20031;-81
2023/04/18 08:06:12;;;;;;;4.35;2.45;;;;;;;;;;5073651;28;20017;-81
2023/04/18 08:08:38;;;;;;;4.70;2.17;;;;;;;;;;5072524;28;20036;-81
2023/04/18 08:11:03;;;;;;;4.50;2.50;;;;;;;;;;5071251;28;20030;-81
2023/04/18 08:13:29;;;;;;;4.03;1.95;;;;;;;;;;5081405;28;20071;-81
2023/04/18 08:15:54;;;;;;;4.05;1.80;;;;;;;;;;5073652;28;20039;-82
2023/04/18 08:18:21;;;;;;;3.65;1.63;;;;;;;;;;5072722;28;20074;-82
2023/04/18 08:20:47;;;;;;;2.13;1.15;;;;;;;;;;5073502;28;20384;-82
2023/04/18 08:23:13;;;;;;;2.80;1.67;;;;;;;;;;5073816;28;20020;-81
2023/04/18 08:25:39;;;;;;;3.05;1.95;;;;;;;;;;5071908;28;20851;-82
2023/04/18 08:28:05;;;;;;;2.67;1.45;;;;;;;;;;5072165;28;20059;-80
2023/04/18 08:30:30;;;;;;;2.15;1.58;;;;;;;;;;5072106;28;20020;-82
2023/04/18 08:32:55;;;;;;;8.73;2.10;;;;;;;;;;5073216;28;20108;-82
2023/04/18 08:35:21;;;;;;;2.53;1.67;;;;;;;;;;5072619;28;20021;-81
2023/04/18 08:37:46;;;;;;;3.90;1.60;;;;;;;;;;5071611;28;20039;-81
2023/04/18 08:40:12;;;;;;;2.88;1.40;;;;;;;;;;5074257;28;20027;-83
2023/04/18 08:42:41;;;;;;;1.95;1.17;;;;;;;;;;5073025;28;20062;-81
2023/04/18 08:45:08;;;;;;;3.20;1.73;;;;;;;;;;5072822;28;20045;-82
2023/04/18 08:47:34;;;;;;;2.88;1.63;;;;;;;;;;5071279;28;20055;-82
2023/04/18 08:50:00;;;;;;;4.57;2.20;;;;;;;;;;5070806;28;20376;-80
2023/04/18 08:52:29;;;;;;;4.07;2.63;;;;;;;;;;5073077;28;20028;-82
2023/04/18 08:54:56;;;;;;;2.03;1.63;;;;;;;;;;5073578;28;20079;-82
2023/04/18 08:57:29;;;;;;;5.95;2.17;;;;;;;;;;5070990;28;20039;-81
2023/04/18 08:59:56;;;;;;;4.72;2.10;;;;;;;;;;5070349;28;20048;-79
2023/04/18 09:02:37;;;;;;;4.28;1.98;;;;;;;;;;5072474;28;20029;-81
2023/04/18 09:05:18;;;;;;;3.45;1.95;;;;;;;;;;5071688;28;20561;-81
2023/04/18 09:07:45;;;;;;;2.75;1.58;;;;;;;;;;5071059;28;20032;-80
2023/04/18 09:10:12;;;;;;;6.18;2.25;;;;;;;;;;5071811;28;20025;-80
2023/04/18 09:12:49;;;;;;;3.13;2.13;;;;;;;;;;5071562;28;20123;-79
2023/04/18 09:15:16;;;;;;;3.85;2.30;;;;;;;;;;5072159;28;20388;-80
2023/04/18 09:17:52;;;;;;;3.05;1.58;;;;;;;;;;5068827;28;20020;-81
2023/04/18 09:20:29;;;;;;;2.78;1.52;;;;;;;;;;5071477;28;20376;-80
2023/04/18 09:22:59;;;;;;;2.50;1.50;;;;;;;;;;5071127;28;20555;-80
2023/04/18 09:25:34;;;;;;;;;;;;;;;;;;5071395;28;20058;-80
2023/04/18 09:28:01;;;;;;;4.32;2.33;;;;;;;;;;5070968;28;19912;-80
2023/04/18 09:30:37;;;;;;;4.07;2.40;;;;;;;;;;5070331;28;20468;-80
2023/04/18 09:33:10;;;;;;;2.38;1.60;;;;;;;;;;5071703;28;21241;-80
2023/04/18 09:35:36;;;;;;;2.88;1.83;;;;;;;;;;5069102;28;20024;-80
2023/04/18 09:38:02;;;;;;;5.30;2.38;;;;;;;;;;5070929;28;20066;-80
2023/04/18 09:40:28;;;;;;;2.83;1.65;;;;;;;;;;5071285;28;20487;-81
2023/04/18 09:42:54;;;;;;;2.25;1.50;;;;;;;;;;5070881;28;20122;-80
2023/04/18 09:45:20;;;;;;;3.47;2.00;;;;;;;;;;5070151;28;20384;-80
2023/04/18 09:47:46;;;;;;;3.55;2.08;;;;;;;;;;5068479;28;20028;-80
2023/04/18 09:50:11;;;;;;;3.17;1.35;;;;;;;;;;5069912;28;20115;-80
2023/04/18 09:52:42;;;;;;;5.15;1.92;;;;;;;;;;5068851;28;20048;-80
2023/04/18 09:55:12;;;;;;;4.22;2.08;;;;;;;;;;5069439;28;20020;-80
2023/04/18 09:57:41;;;;;;;2.65;1.55;;;;;;;;;;5070324;28;20032;-80
2023/04/18 10:00:22;;;;;;;2.73;1.70;;;;;;;;;;5071259;28;20036;-80
2023/04/18 10:02:57;;;;;;;3.45;1.98;;;;;;;;;;5069989;28;20028;-80
2023/04/18 10:05:32;;;;;;;2.97;1.90;;;;;;;;;;5067562;28;20060;-80
2023/04/18 10:07:58;;;;;;;2.40;1.52;;;;;;;;;;5071024;28;20028;-80
2023/04/18 10:10:24;;;;;;;3.97;2.05;;;;;;;;;;5070135;28;20515;-79
2023/04/18 10:12:53;;;;;;;2.90;1.55;;;;;;;;;;5070462;28;20032;-79
2023/04/18 10:15:21;;;;;;;3.03;1.77;;;;;;;;;;5071359;28;20448;-79
2023/04/18 10:18:01;;;;;;;3.83;2.13;;;;;;;;;;5068878;28;20070;-80
2023/04/18 10:20:28;;;;;;;3.03;1.83;;;;;;;;;;5070097;28;20028;-80
2023/04/18 10:22:55;;;;;;;4.32;2.42;;;;;;;;;;5071250;28;20119;-80
2023/04/18 10:25:38;;;;;;;3.53;2.17;;;;;;;;;;5071902;28;20346;-80
2023/04/18 10:28:05;;;;;;;6.10;2.53;;;;;;;;;;5066916;28;20121;-80
2023/04/18 10:30:37;;;;;;;4.88;2.38;;;;;;;;;;5068848;28;20029;-80
2023/04/18 10:33:39;;;;;;;4.57;2.08;;;;;;;;;;5072186;28;20032;-80
2023/04/18 10:36:14;;;;;;;2.42;1.77;;;;;;;;;;5067185;28;20020;-81
2023/04/18 10:39:02;;;;;;;3.38;2.15;;;;;;;;;;5069503;28;20028;-80
2023/04/18 10:41:32;;;;;;;3.28;2.05;;;;;;;;;;5083301;28;20032;-81
2023/04/18 10:44:14;;;;;;;;;;;;;;;;;;5068148;28;20037;-81
2023/04/18 10:46:51;;;;;;;3.80;1.90;;;;;;;;;;5068650;28;20382;-80
2023/04/18 10:49:27;;;;;;;4.28;1.98;;;;;;;;;;5068701;28;20033;-80
2023/04/18 10:52:00;;;;;;;4.40;2.08;;;;;;;;;;5068123;28;20032;-80
2023/04/18 10:54:31;;;;;;;2.55;1.75;;;;;;;;;;5072232;28;20040;-80
2023/04/18 10:57:00;;;;;;;2.58;1.50;;;;;;;;;;5072535;28;20024;-80
2023/04/18 10:59:29;;;;;;;2.73;1.53;;;;;;;;;;5073265;28;20024;-80
2023/04/18 11:01:56;;;;;;;2.08;1.63;;;;;;;;;;5073246;28;20111;-80
2023/04/18 11:04:24;;;;;;;3.22;1.65;;;;;;;;;;5071650;28;20407;-80
2023/04/18 11:06:53;;;;;;;5.25;1.73;;;;;;;;;;5075332;28;20119;-81
2023/04/18 11:09:19;;;;;;;2.55;1.48;;;;;;;;;;5070689;28;20151;-79
2023/04/18 11:11:45;;;;;;;2.58;1.70;;;;;;;;;;5073923;28;20129;-79
2023/04/18 11:14:10;;;;;;;4.95;1.63;;;;;;;;;;5075012;28;20021;-80
2023/04/18 11:16:36;;;;;;;2.33;1.30;;;;;;;;;;5075613;28;20460;-80
2023/04/18 11:19:22;;;;;;;4.20;1.88;;;;;;;;;;5076261;28;20110;-80
2023/04/18 11:21:48;;;;;;;2.83;1.48;;;;;;;;;;5074388;28;20453;-79
2023/04/18 11:24:23;;;;;;;3.53;1.98;;;;;;;;;;5073547;28;20107;-80
2023/04/18 11:26:48;;;;;;;3.05;1.70;;;;;;;;;;5074531;28;20419;-80
2023/04/18 11:29:16;;;;;;;2.47;1.55;;;;;;;;;;5075923;28;20035;-79
2023/04/18 11:31:49;;;;;;;2.28;1.52;;;;;;;;;;5074221;28;20035;-79
2023/04/18 11:34:14;;;;;;;2.88;1.77;;;;;;;;;;5072985;28;20491;-80
2023/04/18 11:36:40;;;;;;;2.90;1.30;;;;;;;;;;5073803;28;20029;-79
2023/04/18 11:39:05;;;;;;;2.30;1.30;;;;;;;;;;5072613;28;20032;-79
2023/04/18 11:41:30;;;;;;;2.33;1.52;;;;;;;;;;5074348;28;20101;-80
2023/04/18 11:43:56;;;;;;;3.42;1.35;;;;;;;;;;5070683;28;20033;-80
2023/04/18 11:46:21;;;;;;;2.53;1.30;;;;;;;;;;5070670;28;20035;-79
2023/04/18 11:48:49;;;;;;;4.10;1.90;;;;;;;;;;5072701;28;20040;-79
2023/04/18 11:51:34;;;;;;;2.75;1.48;;;;;;;;;;5071309;28;20028;-79
2023/04/18 11:54:00;;;;;;;3.50;1.85;;;;;;;;;;5072066;28;20502;-79
2023/04/18 11:56:26;;;;;;;3.33;1.52;;;;;;;;;;5071933;28;20107;-81
2023/04/18 11:58:52;;;;;;;3.22;1.80;;;;;;;;;;5073867;28;20143;-81
2023/04/18 12:01:19;;;;;;;2.20;1.45;;;;;;;;;;5073066;28;20024;-84
2023/04/18 12:04:07;;;;;;;6.38;1.15;;;;;;;;;;5073289;28;20063;-82
2023/04/18 12:06:52;;;;;;;1.02;0.85;;;;;;;;;;5071655;28;20111;-80
2023/04/18 12:09:20;;;;;;;1.00;0.90;;;;;;;;;;5070068;28;20662;-81
2023/04/18 12:12:01;;;;;;;1.02;0.65;;;;;;;;;;5072710;28;20526;-79
2023/04/18 12:14:28;;;;;;;1.17;0.77;;;;;;;;;;5070734;28;20040;-81
2023/04/18 12:16:53;;;;;;;3.63;0.95;;;;;;;;;;5071874;28;20107;-80
2023/04/18 12:19:19;;;;;;;1.33;0.85;;;;;;;;;;5073951;28;20174;-80
2023/04/18 12:21:55;;;;;;;1.25;0.60;;;;;;;;;;5073163;28;20055;-80
2023/04/18 12:24:23;;;;;;;2.17;1.00;;;;;;;;;;5073033;28;20031;-80
2023/04/18 12:26:49;;;;;;;6.60;1.60;;;;;;;;;;5071304;28;20111;-79
2023/04/18 12:29:14;;;;;;;0.90;0.50;;;;;;;;;;5071450;28;20162;-79
2023/04/18 12:31:40;;;;;;;1.17;0.80;;;;;;;;;;5071794;28;20032;-79
2023/04/18 12:34:05;;;;;;;1.95;1.00;;;;;;;;;;5071283;28;20551;-78
2023/04/18 12:36:31;;;;;;;5.60;1.92;;;;;;;;;;5071459;28;20021;-78
2023/04/18 12:38:56;;;;;;;10.30;3.40;;;;;;;;;;5075109;28;20104;-78
2023/04/18 12:41:21;;;;;;;5.50;1.98;;;;;;;;;;5072629;28;20036;-79
2023/04/18 12:43:47;;;;;;;5.75;2.75;;;;;;;;;;5071379;28;20051;-78
2023/04/18 12:46:12;;;;;;;2.65;1.70;;;;;;;;;;5069488;28;20052;-79
2023/04/18 12:48:38;;;;;;;1.33;0.85;;;;;;;;;;5072623;28;20271;-78
2023/04/18 12:51:03;;;;;;;3.05;0.95;;;;;;;;;;5071149;28;20979;-79
2023/04/18 12:53:29;;;;;;;2.45;1.15;;;;;;;;;;5071026;28;20024;-79
2023/04/18 12:55:54;;;;;;;2.67;0.98;;;;;;;;;;5072293;28;20024;-79
2023/04/18 12:58:19;;;;;;;1.98;1.23;;;;;;;;;;5071552;28;20043;-79
2023/04/18 13:00:45;;;;;;;1.27;0.45;;;;;;;;;;5072359;28;20032;-79
2023/04/18 13:03:10;;;;;;;1.00;0.70;;;;;;;;;;5072325;28;20073;-82
2023/04/18 13:05:36;;;;;;;0.93;0.75;;;;;;;;;;5072535;28;20028;-78
2023/04/18 13:08:02;;;;;;;1.08;0.50;;;;;;;;;;5073623;28;20483;-80
2023/04/18 13:10:27;;;;;;;0.43;0.43;;;;;;;;;;5072023;28;20035;-80
2023/04/18 13:12:52;;;;;;;0.45;0.45;;;;;;;;;;5072398;28;20074;-80
2023/04/18 13:15:21;;;;;;;0.68;0.60;;;;;;;;;;5069892;28;20504;-82
2023/04/18 13:17:47;;;;;;;0.40;0.40;;;;;;;;;;5067757;28;20162;-81
2023/04/18 13:20:13;;;;;;;0.55;0.55;;;;;;;;;;5072355;28;20583;-80
2023/04/18 13:22:42;;;;;;;0.40;0.40;;;;;;;;;;5069105;28;20032;-82
2023/04/18 13:25:11;;;;;;;0.57;0.47;;;;;;;;;;5070478;28;20456;-81
2023/04/18 13:27:37;;;;;;;0.40;0.32;;;;;;;;;;5070559;28;20070;-79
2023/04/18 13:30:04;;;;;;;0.68;0.50;;;;;;;;;;5070650;28;20113;-79
2023/04/18 13:32:30;;;;;;;0.80;0.38;;;;;;;;;;5070454;28;20025;-77
2023/04/18 13:34:55;;;;;;;2.40;1.08;;;;;;;;;;5069766;28;20728;-77
2023/04/18 13:37:21;;;;;;;0.50;0.50;;;;;;;;;;5071005;28;20020;-77
2023/04/18 13:39:47;;;;;;;0.75;0.60;;;;;;;;;;5071036;28;20495;-77
2023/04/18 13:42:12;;;;;;;2.70;0.75;;;;;;;;;;5071531;28;20025;-78
2023/04/18 13:44:38;;;;;;;0.95;0.75;;;;;;;;;;5070679;28;20172;-78
2023/04/18 13:47:05;;;;;;;0.50;0.47;;;;;;;;;;5068600;28;20052;-77
2023/04/18 13:49:34;;;;;;;0.85;0.70;;;;;;;;;;5068728;28;20024;-77
2023/04/18 13:51:59;;;;;;;1.10;0.73;;;;;;;;;;5067920;28;20502;-78
2023/04/18 13:54:26;;;;;;;2.10;1.00;;;;;;;;;;5071267;28;20029;-81
2023/04/18 13:56:56;;;;;;;2.50;1.08;;;;;;;;;;5071179;28;20438;-78
2023/04/18 13:59:22;;;;;;;0.68;0.57;;;;;;;;;;5069832;28;20060;-79
2023/04/18 14:01:48;;;;;;;0.82;0.65;;;;;;;;;;5070881;28;20062;-79
2023/04/18 14:04:14;;;;;;;1.92;0.82;;;;;;;;;;5069762;28;20017;-80
2023/04/18 14:06:40;;;;;;;2.25;0.90;;;;;;;;;;5070363;28;20031;-79
2023/04/18 14:09:06;;;;;;;1.23;0.88;;;;;;;;;;5069672;28;20032;-80
2023/04/18 14:11:33;;;;;;;1.38;0.90;;;;;;;;;;5065829;28;20024;-79
2023/04/18 14:13:58;;;;;;;1.20;0.82;;;;;;;;;;5071430;28;20052;-79
2023/04/18 14:16:24;;;;;;;2.35;0.82;;;;;;;;;;5069468;28;20046;-79
2023/04/18 14:18:49;;;;;;;4.43;0.47;;;;;;;;;;5065697;28;20029;-79
2023/04/18 14:21:15;;;;;;;0.90;0.63;;;;;;;;;;5070014;28;20016;-79
2023/04/18 14:23:40;;;;;;;2.67;0.70;;;;;;;;;;5071391;28;20035;-81
2023/04/18 14:26:05;;;;;;;1.42;1.08;;;;;;;;;;5068454;28;20024;-79
2023/04/18 14:28:31;;;;;;;0.77;0.70;;;;;;;;;;5070903;28;20025;-79
2023/04/18 14:30:58;;;;;;;2.65;1.13;;;;;;;;;;5070703;28;20032;-80
2023/04/18 14:33:24;;;;;;;0.70;0.70;;;;;;;;;;5070702;28;20076;-80
2023/04/18 14:35:50;;;;;;;0.75;0.60;;;;;;;;;;5070495;28;20031;-80
2023/04/18 14:38:15;;;;;;;0.80;0.60;;;;;;;;;;5071364;28;20024;-80
2023/04/18 14:40:41;;;;;;;0.40;0.40;;;;;;;;;;5072254;28;20037;-79
2023/04/18 14:43:06;;;;;;;0.85;0.70;;;;;;;;;;5068266;28;20415;-79
2023/04/18 14:45:32;;;;;;;0.63;0.47;;;;;;;;;;5070517;28;20044;-79